sensor_id;sensor_type;location;lat;lon;timestamp;pressure;altitude;pressure_sealevel;temperature;humidity
25638;BME280;13496;51.040;13.680;2023-01-30T00:04:20;99845.06;;;15.45;55.39
25638;BME280;13496;51.040;13.680;2023-01-30T00:09:22;99819.13;;;15.43;55.26
25638;BME280;13496;51.040;13.680;2023-01-30T00:14:23;99830.53;;;15.42;55.42
25638;BME280;13496;51.040;13.680;2023-01-30T00:19:25;99819.44;;;15.40;55.28
25638;BME280;13496;51.040;13.680;2023-01-30T00:24:27;99817.00;;;15.39;55.13
25638;BME280;13496;51.040;13.680;2023-01-30T00:29:28;99813.53;;;15.38;55.25
25638;BME280;13496;51.040;13.680;2023-01-30T00:34:30;99803.25;;;15.37;55.23
25638;BME280;13496;51.040;13.680;2023-01-30T00:39:31;99800.47;;;15.38;55.23
25638;BME280;13496;51.040;13.680;2023-01-30T00:44:33;99797.03;;;15.38;55.11
25638;BME280;13496;51.040;13.680;2023-01-30T00:49:53;99763.88;;;15.38;55.14
25638;BME280;13496;51.040;13.680;2023-01-30T00:54:55;99752.94;;;15.35;55.14
25638;BME280;13496;51.040;13.680;2023-01-30T00:59:57;99733.81;;;15.34;55.17
25638;BME280;13496;51.040;13.680;2023-01-30T01:04:58;99747.69;;;15.35;54.97
25638;BME280;13496;51.040;13.680;2023-01-30T01:10:02;99747.88;;;15.33;54.90
25638;BME280;13496;51.040;13.680;2023-01-30T01:15:04;99744.47;;;15.33;54.58
25638;BME280;13496;51.040;13.680;2023-01-30T01:20:06;99716.69;;;15.32;54.92
25638;BME280;13496;51.040;13.680;2023-01-30T01:25:09;99692.31;;;15.31;54.79
25638;BME280;13496;51.040;13.680;2023-01-30T01:30:11;99690.72;;;15.30;54.69
25638;BME280;13496;51.040;13.680;2023-01-30T01:35:13;99663.94;;;15.28;54.82
25638;BME280;13496;51.040;13.680;2023-01-30T01:40:17;99659.53;;;15.29;54.81
25638;BME280;13496;51.040;13.680;2023-01-30T01:45:38;99644.97;;;15.26;55.06
25638;BME280;13496;51.040;13.680;2023-01-30T01:50:56;99648.59;;;15.25;54.68
25638;BME280;13496;51.040;13.680;2023-01-30T01:55:59;99636.50;;;15.24;54.58
25638;BME280;13496;51.040;13.680;2023-01-30T02:01:04;99618.38;;;15.22;54.68
25638;BME280;13496;51.040;13.680;2023-01-30T02:06:07;99592.41;;;15.21;54.63
25638;BME280;13496;51.040;13.680;2023-01-30T02:16:21;99564.47;;;15.21;54.61
25638;BME280;13496;51.040;13.680;2023-01-30T02:21:49;99568.09;;;15.20;54.53
25638;BME280;13496;51.040;13.680;2023-01-30T02:27:09;99562.00;;;15.20;54.54
25638;BME280;13496;51.040;13.680;2023-01-30T02:32:24;99546.34;;;15.20;54.65
25638;BME280;13496;51.040;13.680;2023-01-30T02:42:50;99558.44;;;15.21;54.69
25638;BME280;13496;51.040;13.680;2023-01-30T02:48:06;99563.81;;;15.19;54.40
25638;BME280;13496;51.040;13.680;2023-01-30T02:53:11;99543.72;;;15.20;54.55
25638;BME280;13496;51.040;13.680;2023-01-30T02:58:15;99518.59;;;15.19;54.53
25638;BME280;13496;51.040;13.680;2023-01-30T03:03:49;99491.47;;;15.20;54.41
25638;BME280;13496;51.040;13.680;2023-01-30T03:09:05;99490.84;;;15.18;54.57
25638;BME280;13496;51.040;13.680;2023-01-30T03:14:23;99477.13;;;15.16;54.55
25638;BME280;13496;51.040;13.680;2023-01-30T03:19:27;99472.53;;;15.18;54.33
25638;BME280;13496;51.040;13.680;2023-01-30T03:24:30;99449.03;;;15.18;54.62
25638;BME280;13496;51.040;13.680;2023-01-30T03:29:32;99417.19;;;15.14;54.49
25638;BME280;13496;51.040;13.680;2023-01-30T03:34:34;99417.00;;;15.16;54.59
25638;BME280;13496;51.040;13.680;2023-01-30T03:39:35;99397.91;;;15.15;54.32
25638;BME280;13496;51.040;13.680;2023-01-30T03:44:37;99399.44;;;15.10;54.12
25638;BME280;13496;51.040;13.680;2023-01-30T03:49:39;99381.63;;;15.13;54.24
25638;BME280;13496;51.040;13.680;2023-01-30T03:54:42;99366.09;;;15.12;54.40
25638;BME280;13496;51.040;13.680;2023-01-30T03:59:43;99374.94;;;15.11;54.40
25638;BME280;13496;51.040;13.680;2023-01-30T04:04:48;99388.97;;;15.10;54.15
25638;BME280;13496;51.040;13.680;2023-01-30T04:09:50;99386.19;;;15.11;54.09
25638;BME280;13496;51.040;13.680;2023-01-30T04:14:54;99346.38;;;15.09;54.53
25638;BME280;13496;51.040;13.680;2023-01-30T04:20:12;99335.09;;;15.09;54.23
25638;BME280;13496;51.040;13.680;2023-01-30T04:25:19;99331.31;;;15.11;54.10
25638;BME280;13496;51.040;13.680;2023-01-30T04:30:21;99313.22;;;15.10;54.12
25638;BME280;13496;51.040;13.680;2023-01-30T04:35:26;99309.94;;;15.08;53.71
25638;BME280;13496;51.040;13.680;2023-01-30T04:40:28;99308.94;;;15.09;53.84
25638;BME280;13496;51.040;13.680;2023-01-30T04:45:31;99317.63;;;15.09;53.79
25638;BME280;13496;51.040;13.680;2023-01-30T04:50:32;99292.66;;;15.07;54.17
25638;BME280;13496;51.040;13.680;2023-01-30T04:55:34;99299.50;;;15.08;53.91
25638;BME280;13496;51.040;13.680;2023-01-30T05:00:37;99284.81;;;15.07;53.80
25638;BME280;13496;51.040;13.680;2023-01-30T05:05:38;99250.84;;;15.07;53.99
25638;BME280;13496;51.040;13.680;2023-01-30T05:10:43;99227.34;;;15.07;53.67
25638;BME280;13496;51.040;13.680;2023-01-30T05:15:45;99213.63;;;15.05;53.67
25638;BME280;13496;51.040;13.680;2023-01-30T05:20:46;99203.84;;;15.07;53.84
25638;BME280;13496;51.040;13.680;2023-01-30T05:25:48;99172.84;;;15.04;53.90
25638;BME280;13496;51.040;13.680;2023-01-30T05:30:50;99183.94;;;15.06;53.76
25638;BME280;13496;51.040;13.680;2023-01-30T05:35:51;99173.03;;;15.02;53.98
25638;BME280;13496;51.040;13.680;2023-01-30T05:41:04;99178.06;;;15.04;53.30
25638;BME280;13496;51.040;13.680;2023-01-30T05:46:06;99162.13;;;14.98;53.12
25638;BME280;13496;51.040;13.680;2023-01-30T05:51:24;99158.50;;;14.99;53.88
25638;BME280;13496;51.040;13.680;2023-01-30T05:56:26;99155.72;;;15.01;53.37
25638;BME280;13496;51.040;13.680;2023-01-30T06:01:29;99157.34;;;15.02;54.18
25638;BME280;13496;51.040;13.680;2023-01-30T06:06:30;99154.91;;;15.00;54.04
25638;BME280;13496;51.040;13.680;2023-01-30T06:11:32;99146.06;;;15.01;53.27
25638;BME280;13496;51.040;13.680;2023-01-30T06:16:34;99135.63;;;15.01;53.41
25638;BME280;13496;51.040;13.680;2023-01-30T06:21:35;99128.78;;;15.00;52.54
25638;BME280;13496;51.040;13.680;2023-01-30T06:26:37;99140.22;;;14.99;53.27
25638;BME280;13496;51.040;13.680;2023-01-30T06:31:39;99147.25;;;14.99;53.40
25638;BME280;13496;51.040;13.680;2023-01-30T06:36:40;99126.34;;;14.99;53.93
25638;BME280;13496;51.040;13.680;2023-01-30T06:41:42;99136.81;;;14.99;53.40
25638;BME280;13496;51.040;13.680;2023-01-30T06:46:43;99142.19;;;14.97;53.27
25638;BME280;13496;51.040;13.680;2023-01-30T06:51:45;99149.88;;;14.99;53.80
25638;BME280;13496;51.040;13.680;2023-01-30T06:56:47;99154.09;;;15.00;53.69
25638;BME280;13496;51.040;13.680;2023-01-30T07:01:48;99148.06;;;14.99;52.71
25638;BME280;13496;51.040;13.680;2023-01-30T07:06:50;99153.63;;;14.96;52.58
25638;BME280;13496;51.040;13.680;2023-01-30T07:11:52;99146.44;;;14.98;52.59
25638;BME280;13496;51.040;13.680;2023-01-30T07:16:53;99136.81;;;14.99;53.40
25638;BME280;13496;51.040;13.680;2023-01-30T07:21:55;99132.75;;;14.96;52.86
25638;BME280;13496;51.040;13.680;2023-01-30T07:26:56;99133.09;;;14.93;51.25
25638;BME280;13496;51.040;13.680;2023-01-30T07:31:58;99131.13;;;14.95;53.22
25638;BME280;13496;51.040;13.680;2023-01-30T07:37:00;99118.69;;;14.97;53.48
25638;BME280;13496;51.040;13.680;2023-01-30T07:42:02;99118.06;;;14.95;52.29
25638;BME280;13496;51.040;13.680;2023-01-30T07:47:04;99123.91;;;14.97;52.66
25638;BME280;13496;51.040;13.680;2023-01-30T07:52:05;99107.88;;;15.00;52.82
25638;BME280;13496;51.040;13.680;2023-01-30T07:57:07;99119.13;;;15.01;52.52
25638;BME280;13496;51.040;13.680;2023-01-30T08:02:09;99108.53;;;15.03;52.75
25638;BME280;13496;51.040;13.680;2023-01-30T08:07:11;99098.44;;;14.99;51.51
25638;BME280;13496;51.040;13.680;2023-01-30T08:12:13;99109.03;;;14.98;50.16
25638;BME280;13496;51.040;13.680;2023-01-30T08:17:14;99118.34;;;15.00;52.27
25638;BME280;13496;51.040;13.680;2023-01-30T08:22:16;99103.66;;;14.99;52.44
25638;BME280;13496;51.040;13.680;2023-01-30T08:27:18;99103.81;;;14.98;52.05
25638;BME280;13496;51.040;13.680;2023-01-30T08:32:19;99107.44;;;14.97;50.78
25638;BME280;13496;51.040;13.680;2023-01-30T08:37:21;99111.13;;;15.03;50.99
25638;BME280;13496;51.040;13.680;2023-01-30T08:42:22;99119.31;;;14.99;51.32
25638;BME280;13496;51.040;13.680;2023-01-30T08:47:24;99100.25;;;14.99;51.08
25638;BME280;13496;51.040;13.680;2023-01-30T08:52:26;99107.06;;;15.00;52.22
25638;BME280;13496;51.040;13.680;2023-01-30T08:57:28;99118.78;;;15.04;51.67
25638;BME280;13496;51.040;13.680;2023-01-30T09:02:29;99114.66;;;15.10;52.25
25638;BME280;13496;51.040;13.680;2023-01-30T09:07:31;99119.44;;;15.06;50.06
25638;BME280;13496;51.040;13.680;2023-01-30T09:12:33;99113.00;;;15.09;50.84
25638;BME280;13496;51.040;13.680;2023-01-30T09:17:35;99113.84;;;15.09;50.83
25638;BME280;13496;51.040;13.680;2023-01-30T09:22:38;99113.28;;;15.14;51.06
25638;BME280;13496;51.040;13.680;2023-01-30T09:27:39;99116.16;;;15.04;50.25
25638;BME280;13496;51.040;13.680;2023-01-30T09:32:44;99118.78;;;15.04;50.74
25638;BME280;13496;51.040;13.680;2023-01-30T09:37:51;99123.75;;;14.99;50.47
25638;BME280;13496;51.040;13.680;2023-01-30T09:43:07;99111.13;;;15.03;51.06
25638;BME280;13496;51.040;13.680;2023-01-30T09:48:18;99101.59;;;15.10;50.10
25638;BME280;13496;51.040;13.680;2023-01-30T09:53:58;99099.13;;;15.08;49.51
25638;BME280;13496;51.040;13.680;2023-01-30T09:59:03;99089.94;;;14.97;50.01
25638;BME280;13496;51.040;13.680;2023-01-30T10:04:13;99084.13;;;14.95;50.92
25638;BME280;13496;51.040;13.680;2023-01-30T10:09:53;99072.75;;;15.03;50.87
25638;BME280;13496;51.040;13.680;2023-01-30T10:15:13;99070.41;;;15.08;50.20
25638;BME280;13496;51.040;13.680;2023-01-30T10:20:25;99058.53;;;15.06;49.35
25638;BME280;13496;51.040;13.680;2023-01-30T10:30:44;99062.91;;;15.05;48.80
25638;BME280;13496;51.040;13.680;2023-01-30T10:41:33;99081.19;;;15.20;50.42
25638;BME280;13496;51.040;13.680;2023-01-30T11:03:03;99074.72;;;15.16;50.12
25638;BME280;13496;51.040;13.680;2023-01-30T11:08:31;99077.78;;;15.19;49.48
25638;BME280;13496;51.040;13.680;2023-01-30T11:13:33;99074.72;;;15.16;49.90
25638;BME280;13496;51.040;13.680;2023-01-30T11:18:49;99074.00;;;15.22;50.41
25638;BME280;13496;51.040;13.680;2023-01-30T11:23:53;99095.63;;;15.16;50.09
25638;BME280;13496;51.040;13.680;2023-01-30T11:28:54;99077.69;;;15.13;49.32
25638;BME280;13496;51.040;13.680;2023-01-30T11:34:08;99085.16;;;15.16;50.28
25638;BME280;13496;51.040;13.680;2023-01-30T11:44:26;99073.75;;;15.17;49.80
25638;BME280;13496;51.040;13.680;2023-01-30T11:49:42;99066.72;;;15.17;49.68
25638;BME280;13496;51.040;13.680;2023-01-30T11:54:44;99053.81;;;15.16;49.96
25638;BME280;13496;51.040;13.680;2023-01-30T11:59:53;99058.78;;;15.11;50.04
25638;BME280;13496;51.040;13.680;2023-01-30T12:04:58;99054.56;;;15.10;50.16
25638;BME280;13496;51.040;13.680;2023-01-30T12:10:18;99032.66;;;15.11;49.81
25638;BME280;13496;51.040;13.680;2023-01-30T12:15:28;99022.91;;;15.19;49.84
25638;BME280;13496;51.040;13.680;2023-01-30T12:20:58;99018.47;;;15.20;49.76
25638;BME280;13496;51.040;13.680;2023-01-30T12:26:09;99001.38;;;15.17;50.51
25638;BME280;13496;51.040;13.680;2023-01-30T12:31:36;98998.41;;;15.20;50.21
25638;BME280;13496;51.040;13.680;2023-01-30T12:53:01;98993.63;;;15.24;50.31
25638;BME280;13496;51.040;13.680;2023-01-30T12:58:13;98984.03;;;15.31;49.79
25638;BME280;13496;51.040;13.680;2023-01-30T13:03:34;98993.63;;;15.24;50.65
25638;BME280;13496;51.040;13.680;2023-01-30T13:08:44;98989.81;;;15.27;50.66
25638;BME280;13496;51.040;13.680;2023-01-30T13:14:07;98989.75;;;15.20;49.89
25638;BME280;13496;51.040;13.680;2023-01-30T13:19:30;98984.34;;;15.21;50.35
25638;BME280;13496;51.040;13.680;2023-01-30T13:25:08;98981.91;;;15.20;50.17
25638;BME280;13496;51.040;13.680;2023-01-30T13:30:15;98970.47;;;15.21;50.41
25638;BME280;13496;51.040;13.680;2023-01-30T13:35:27;98973.63;;;15.16;48.93
25638;BME280;13496;51.040;13.680;2023-01-30T13:40:39;98981.91;;;15.20;50.35
25638;BME280;13496;51.040;13.680;2023-01-30T13:45:44;98971.09;;;15.23;50.02
25638;BME280;13496;51.040;13.680;2023-01-30T14:01:21;98967.59;;;15.16;49.17
25638;BME280;13496;51.040;13.680;2023-01-30T14:06:35;98980.28;;;15.19;50.28
25638;BME280;13496;51.040;13.680;2023-01-30T14:11:56;98987.69;;;15.15;49.10
25638;BME280;13496;51.040;13.680;2023-01-30T14:23:05;98974.81;;;15.14;49.08
25638;BME280;13496;51.040;13.680;2023-01-30T14:38:23;99001.56;;;15.16;49.77
25638;BME280;13496;51.040;13.680;2023-01-30T14:43:31;99001.75;;;15.14;49.72
25638;BME280;13496;51.040;13.680;2023-01-30T14:48:38;98994.72;;;15.15;49.57
25638;BME280;13496;51.040;13.680;2023-01-30T14:59:02;98989.69;;;15.13;49.48
25638;BME280;13496;51.040;13.680;2023-01-30T15:04:05;98995.09;;;15.12;49.44
25638;BME280;13496;51.040;13.680;2023-01-30T15:09:07;98993.22;;;15.06;49.12
25638;BME280;13496;51.040;13.680;2023-01-30T15:14:17;98994.84;;;15.07;49.98
25638;BME280;13496;51.040;13.680;2023-01-30T15:19:53;99001.06;;;15.06;49.78
25638;BME280;13496;51.040;13.680;2023-01-30T15:25:26;99023.38;;;15.08;50.27
25638;BME280;13496;51.040;13.680;2023-01-30T15:30:51;99031.78;;;15.04;49.85
25638;BME280;13496;51.040;13.680;2023-01-30T15:36:17;99047.63;;;15.02;50.22
25638;BME280;13496;51.040;13.680;2023-01-30T15:41:19;99050.25;;;15.02;48.58
25638;BME280;13496;51.040;13.680;2023-01-30T15:46:40;99075.00;;;15.06;49.55
25638;BME280;13496;51.040;13.680;2023-01-30T15:51:47;99094.47;;;15.04;50.23
25638;BME280;13496;51.040;13.680;2023-01-30T15:56:51;99086.63;;;15.04;50.61
25638;BME280;13496;51.040;13.680;2023-01-30T16:01:59;99099.94;;;15.09;50.69
25638;BME280;13496;51.040;13.680;2023-01-30T16:07:25;99105.81;;;15.11;51.00
25638;BME280;13496;51.040;13.680;2023-01-30T16:12:31;99100.78;;;15.09;50.61
25638;BME280;13496;51.040;13.680;2023-01-30T16:17:33;99106.81;;;15.10;50.72
25638;BME280;13496;51.040;13.680;2023-01-30T16:22:35;99114.47;;;15.11;51.56
25638;BME280;13496;51.040;13.680;2023-01-30T16:27:37;99107.78;;;15.09;49.98
25638;BME280;13496;51.040;13.680;2023-01-30T16:32:41;99118.44;;;15.07;50.92
25638;BME280;13496;51.040;13.680;2023-01-30T16:37:43;99115.63;;;15.09;50.44
25638;BME280;13496;51.040;13.680;2023-01-30T16:42:58;99113.66;;;15.11;50.16
25638;BME280;13496;51.040;13.680;2023-01-30T16:53:18;99115.63;;;15.09;49.98
25638;BME280;13496;51.040;13.680;2023-01-30T16:58:24;99124.91;;;15.11;50.18
25638;BME280;13496;51.040;13.680;2023-01-30T17:03:32;99142.59;;;15.09;51.09
25638;BME280;13496;51.040;13.680;2023-01-30T17:08:49;99144.19;;;15.10;51.30
25638;BME280;13496;51.040;13.680;2023-01-30T17:14:09;99156.63;;;15.08;50.65
25638;BME280;13496;51.040;13.680;2023-01-30T17:19:11;99167.25;;;15.07;51.08
25638;BME280;13496;51.040;13.680;2023-01-30T17:24:19;99180.31;;;15.07;51.28
25638;BME280;13496;51.040;13.680;2023-01-30T17:29:21;99174.28;;;15.06;51.34
25638;BME280;13496;51.040;13.680;2023-01-30T17:34:25;99160.56;;;15.04;49.90
25638;BME280;13496;51.040;13.680;2023-01-30T17:39:27;99148.69;;;15.01;49.74
25638;BME280;13496;51.040;13.680;2023-01-30T17:44:29;99168.59;;;15.03;50.73
25638;BME280;13496;51.040;13.680;2023-01-30T17:49:31;99170.22;;;15.04;50.33
25638;BME280;13496;51.040;13.680;2023-01-30T17:54:33;99188.69;;;15.02;50.22
25638;BME280;13496;51.040;13.680;2023-01-30T17:59:44;99201.91;;;15.00;51.18
25638;BME280;13496;51.040;13.680;2023-01-30T18:04:47;99209.75;;;15.00;51.31
25638;BME280;13496;51.040;13.680;2023-01-30T18:09:48;99220.84;;;15.03;50.71
25638;BME280;13496;51.040;13.680;2023-01-30T18:14:50;99242.09;;;14.99;50.86
25638;BME280;13496;51.040;13.680;2023-01-30T18:19:52;99251.75;;;14.99;50.80
25638;BME280;13496;51.040;13.680;2023-01-30T18:24:55;99269.56;;;14.95;48.07
25638;BME280;13496;51.040;13.680;2023-01-30T18:29:56;99282.16;;;14.92;51.56
25638;BME280;13496;51.040;13.680;2023-01-30T18:34:58;99303.53;;;14.95;51.58
25638;BME280;13496;51.040;13.680;2023-01-30T18:40:00;99304.94;;;14.98;50.94
25638;BME280;13496;51.040;13.680;2023-01-30T18:45:01;99323.25;;;14.98;50.93
25638;BME280;13496;51.040;13.680;2023-01-30T18:50:03;99324.06;;;14.98;50.24
25638;BME280;13496;51.040;13.680;2023-01-30T18:55:06;99337.47;;;14.95;51.56
25638;BME280;13496;51.040;13.680;2023-01-30T19:00:08;99332.41;;;14.94;51.40
25638;BME280;13496;51.040;13.680;2023-01-30T19:05:10;99340.09;;;14.95;51.16
25638;BME280;13496;51.040;13.680;2023-01-30T19:10:12;99347.28;;;14.93;49.85
25638;BME280;13496;51.040;13.680;2023-01-30T19:15:17;99356.28;;;14.91;51.31
25638;BME280;13496;51.040;13.680;2023-01-30T19:20:19;99368.66;;;14.97;52.08
25638;BME280;13496;51.040;13.680;2023-01-30T19:25:20;99382.50;;;14.97;51.34
25638;BME280;13496;51.040;13.680;2023-01-30T19:30:22;99395.09;;;14.94;52.11
25638;BME280;13496;51.040;13.680;2023-01-30T19:35:24;99401.50;;;14.91;50.33
25638;BME280;13496;51.040;13.680;2023-01-30T19:40:25;99411.63;;;14.94;52.25
25638;BME280;13496;51.040;13.680;2023-01-30T19:45:27;99420.41;;;14.93;50.95
25638;BME280;13496;51.040;13.680;2023-01-30T19:50:30;99434.81;;;14.89;50.81
25638;BME280;13496;51.040;13.680;2023-01-30T19:55:32;99445.59;;;14.86;50.04
25638;BME280;13496;51.040;13.680;2023-01-30T20:00:35;99437.28;;;14.91;51.96
25638;BME280;13496;51.040;13.680;2023-01-30T20:05:37;99476.31;;;14.84;49.69
25638;BME280;13496;51.040;13.680;2023-01-30T20:10:39;99467.47;;;14.85;50.20
25638;BME280;13496;51.040;13.680;2023-01-30T20:15:42;99476.78;;;14.88;51.82
25638;BME280;13496;51.040;13.680;2023-01-30T20:20:43;99476.78;;;14.88;49.69
25638;BME280;13496;51.040;13.680;2023-01-30T20:25:45;99483.63;;;14.89;51.83
25638;BME280;13496;51.040;13.680;2023-01-30T20:30:48;99490.00;;;14.86;49.61
25638;BME280;13496;51.040;13.680;2023-01-30T20:35:49;99495.06;;;14.88;50.48
25638;BME280;13496;51.040;13.680;2023-01-30T20:40:59;99487.56;;;14.85;50.70
25638;BME280;13496;51.040;13.680;2023-01-30T20:46:08;99497.84;;;14.86;51.83
25638;BME280;13496;51.040;13.680;2023-01-30T20:51:15;99523.00;;;14.87;50.46
25638;BME280;13496;51.040;13.680;2023-01-30T20:56:18;99525.59;;;14.87;51.74
25638;BME280;13496;51.040;13.680;2023-01-30T21:01:22;99528.38;;;14.86;50.44
25638;BME280;13496;51.040;13.680;2023-01-30T21:06:28;99542.72;;;14.90;51.77
25638;BME280;13496;51.040;13.680;2023-01-30T21:11:30;99557.56;;;14.89;50.22
25638;BME280;13496;51.040;13.680;2023-01-30T21:16:33;99548.97;;;14.81;50.12
25638;BME280;13496;51.040;13.680;2023-01-30T21:21:47;99553.34;;;14.88;50.36
25638;BME280;13496;51.040;13.680;2023-01-30T21:26:50;99554.97;;;14.89;51.21
25638;BME280;13496;51.040;13.680;2023-01-30T21:31:53;99576.19;;;14.86;50.13
25638;BME280;13496;51.040;13.680;2023-01-30T21:36:55;99588.63;;;14.84;49.77
25638;BME280;13496;51.040;13.680;2023-01-30T21:42:16;99574.56;;;14.85;49.56
25638;BME280;13496;51.040;13.680;2023-01-30T21:47:36;99583.72;;;14.81;48.11
25638;BME280;13496;51.040;13.680;2023-01-30T21:52:38;99600.69;;;14.85;51.51
25638;BME280;13496;51.040;13.680;2023-01-30T21:57:39;99611.63;;;14.89;51.50
25638;BME280;13496;51.040;13.680;2023-01-30T22:02:41;99607.19;;;14.89;51.56
25638;BME280;13496;51.040;13.680;2023-01-30T22:07:43;99617.66;;;14.89;51.57
25638;BME280;13496;51.040;13.680;2023-01-30T22:12:44;99626.16;;;14.91;51.71
25638;BME280;13496;51.040;13.680;2023-01-30T22:17:48;99623.53;;;14.91;51.88
25638;BME280;13496;51.040;13.680;2023-01-30T22:22:49;99626.47;;;14.88;51.22
25638;BME280;13496;51.040;13.680;2023-01-30T22:27:51;99624.53;;;14.82;50.77
25638;BME280;13496;51.040;13.680;2023-01-30T22:32:53;99643.78;;;14.81;51.27
25638;BME280;13496;51.040;13.680;2023-01-30T22:37:55;99658.81;;;14.79;48.04
25638;BME280;13496;51.040;13.680;2023-01-30T22:42:57;99676.44;;;14.77;50.93
25638;BME280;13496;51.040;13.680;2023-01-30T22:47:59;99685.09;;;14.77;50.41
25638;BME280;13496;51.040;13.680;2023-01-30T22:53:00;99684.78;;;14.72;48.38
25638;BME280;13496;51.040;13.680;2023-01-30T22:58:02;99694.06;;;14.75;47.54
25638;BME280;13496;51.040;13.680;2023-01-30T23:03:03;99693.09;;;14.76;50.96
25638;BME280;13496;51.040;13.680;2023-01-30T23:08:05;99689.50;;;14.77;50.83
25638;BME280;13496;51.040;13.680;2023-01-30T23:13:07;99693.41;;;14.81;51.19
25638;BME280;13496;51.040;13.680;2023-01-30T23:18:09;99692.75;;;14.79;50.53
25638;BME280;13496;51.040;13.680;2023-01-30T23:23:29;99688.50;;;14.78;51.35
25638;BME280;13496;51.040;13.680;2023-01-30T23:28:31;99685.41;;;14.74;49.31
25638;BME280;13496;51.040;13.680;2023-01-30T23:33:33;99679.38;;;14.74;50.93
25638;BME280;13496;51.040;13.680;2023-01-30T23:38:35;99681.19;;;14.73;49.70
25638;BME280;13496;51.040;13.680;2023-01-30T23:43:39;99675.16;;;14.73;50.75
25638;BME280;13496;51.040;13.680;2023-01-30T23:48:43;99690.16;;;14.71;49.61
25638;BME280;13496;51.040;13.680;2023-01-30T23:53:45;99690.16;;;14.63;48.07
25638;BME280;13496;51.040;13.680;2023-01-30T23:58:47;99694.72;;;14.61;48.50
